sensor_id;sensor_type;location;lat;lon;timestamp;temperature;humidity
49861;DHT22;35761;48.826;9.238;2022-10-16T00:01:44;16.40;65.30
49861;DHT22;35761;48.826;9.238;2022-10-16T00:04:13;16.40;65.70
49861;DHT22;35761;48.826;9.238;2022-10-16T00:06:42;16.30;65.60
49861;DHT22;35761;48.826;9.238;2022-10-16T00:09:10;16.30;65.90
49861;DHT22;35761;48.826;9.238;2022-10-16T00:11:40;16.30;66.20
49861;DHT22;35761;48.826;9.238;2022-10-16T00:14:10;16.30;65.90
49861;DHT22;35761;48.826;9.238;2022-10-16T00:16:41;16.30;65.80
49861;DHT22;35761;48.826;9.238;2022-10-16T00:19:11;16.30;65.70
49861;DHT22;35761;48.826;9.238;2022-10-16T00:21:40;16.40;64.60
49861;DHT22;35761;48.826;9.238;2022-10-16T00:24:28;16.30;64.70
49861;DHT22;35761;48.826;9.238;2022-10-16T00:26:58;16.40;64.80
49861;DHT22;35761;48.826;9.238;2022-10-16T00:29:26;16.30;65.20
49861;DHT22;35761;48.826;9.238;2022-10-16T00:31:55;16.30;65.10
49861;DHT22;35761;48.826;9.238;2022-10-16T00:34:23;16.30;64.90
49861;DHT22;35761;48.826;9.238;2022-10-16T00:36:52;16.30;65.20
49861;DHT22;35761;48.826;9.238;2022-10-16T00:39:21;16.30;65.00
49861;DHT22;35761;48.826;9.238;2022-10-16T00:41:49;16.20;65.20
49861;DHT22;35761;48.826;9.238;2022-10-16T00:44:49;16.20;65.70
49861;DHT22;35761;48.826;9.238;2022-10-16T00:47:24;16.20;66.50
49861;DHT22;35761;48.826;9.238;2022-10-16T00:49:59;16.10;67.10
49861;DHT22;35761;48.826;9.238;2022-10-16T00:52:29;16.10;67.30
49861;DHT22;35761;48.826;9.238;2022-10-16T00:54:58;16.10;67.50
49861;DHT22;35761;48.826;9.238;2022-10-16T00:57:27;16.10;67.60
49861;DHT22;35761;48.826;9.238;2022-10-16T00:59:57;16.10;67.50
49861;DHT22;35761;48.826;9.238;2022-10-16T01:02:26;16.10;67.70
49861;DHT22;35761;48.826;9.238;2022-10-16T01:04:55;16.00;68.30
49861;DHT22;35761;48.826;9.238;2022-10-16T01:07:33;16.00;68.50
49861;DHT22;35761;48.826;9.238;2022-10-16T01:10:12;16.10;68.60
49861;DHT22;35761;48.826;9.238;2022-10-16T01:12:50;16.10;68.50
49861;DHT22;35761;48.826;9.238;2022-10-16T01:15:26;16.00;68.40
49861;DHT22;35761;48.826;9.238;2022-10-16T01:20:37;16.00;68.80
49861;DHT22;35761;48.826;9.238;2022-10-16T01:23:26;16.00;68.80
49861;DHT22;35761;48.826;9.238;2022-10-16T01:26:11;16.00;69.00
49861;DHT22;35761;48.826;9.238;2022-10-16T01:28:49;16.00;69.40
49861;DHT22;35761;48.826;9.238;2022-10-16T01:31:24;16.00;69.80
49861;DHT22;35761;48.826;9.238;2022-10-16T01:33:59;15.90;70.00
49861;DHT22;35761;48.826;9.238;2022-10-16T01:36:37;15.90;70.00
49861;DHT22;35761;48.826;9.238;2022-10-16T01:39:09;15.90;70.10
49861;DHT22;35761;48.826;9.238;2022-10-16T01:41:41;15.90;69.40
49861;DHT22;35761;48.826;9.238;2022-10-16T01:44:16;15.90;69.30
49861;DHT22;35761;48.826;9.238;2022-10-16T01:46:49;15.90;69.30
49861;DHT22;35761;48.826;9.238;2022-10-16T01:49:20;15.90;69.30
49861;DHT22;35761;48.826;9.238;2022-10-16T01:51:55;15.90;69.60
49861;DHT22;35761;48.826;9.238;2022-10-16T01:54:27;16.00;69.60
49861;DHT22;35761;48.826;9.238;2022-10-16T01:56:56;15.90;69.80
49861;DHT22;35761;48.826;9.238;2022-10-16T01:59:29;15.90;69.90
49861;DHT22;35761;48.826;9.238;2022-10-16T02:02:01;15.90;69.90
49861;DHT22;35761;48.826;9.238;2022-10-16T02:04:37;15.90;70.30
49861;DHT22;35761;48.826;9.238;2022-10-16T02:07:07;15.90;70.30
49861;DHT22;35761;48.826;9.238;2022-10-16T02:09:36;15.90;70.10
49861;DHT22;35761;48.826;9.238;2022-10-16T02:12:09;15.90;70.20
49861;DHT22;35761;48.826;9.238;2022-10-16T02:14:42;15.90;70.20
49861;DHT22;35761;48.826;9.238;2022-10-16T02:17:12;15.90;70.30
49861;DHT22;35761;48.826;9.238;2022-10-16T02:19:43;15.90;70.50
49861;DHT22;35761;48.826;9.238;2022-10-16T02:22:16;15.90;70.30
49861;DHT22;35761;48.826;9.238;2022-10-16T02:24:52;15.90;70.30
49861;DHT22;35761;48.826;9.238;2022-10-16T02:27:26;15.90;70.70
49861;DHT22;35761;48.826;9.238;2022-10-16T02:30:02;15.80;70.90
49861;DHT22;35761;48.826;9.238;2022-10-16T02:32:37;15.90;71.50
49861;DHT22;35761;48.826;9.238;2022-10-16T02:35:10;15.90;71.60
49861;DHT22;35761;48.826;9.238;2022-10-16T02:37:40;15.80;71.60
49861;DHT22;35761;48.826;9.238;2022-10-16T02:40:10;15.80;71.50
49861;DHT22;35761;48.826;9.238;2022-10-16T02:42:40;15.80;71.80
49861;DHT22;35761;48.826;9.238;2022-10-16T02:45:11;15.70;72.10
49861;DHT22;35761;48.826;9.238;2022-10-16T02:47:39;15.80;72.10
49861;DHT22;35761;48.826;9.238;2022-10-16T02:50:08;15.80;72.10
49861;DHT22;35761;48.826;9.238;2022-10-16T02:52:37;15.80;71.90
49861;DHT22;35761;48.826;9.238;2022-10-16T02:55:05;15.80;71.70
49861;DHT22;35761;48.826;9.238;2022-10-16T02:57:34;15.80;71.20
49861;DHT22;35761;48.826;9.238;2022-10-16T03:00:04;15.80;71.20
49861;DHT22;35761;48.826;9.238;2022-10-16T03:02:35;15.80;71.10
49861;DHT22;35761;48.826;9.238;2022-10-16T03:05:04;15.80;70.10
49861;DHT22;35761;48.826;9.238;2022-10-16T03:07:33;15.90;69.90
49861;DHT22;35761;48.826;9.238;2022-10-16T03:10:01;15.80;69.60
49861;DHT22;35761;48.826;9.238;2022-10-16T03:12:29;15.90;69.60
49861;DHT22;35761;48.826;9.238;2022-10-16T03:14:58;15.90;69.50
49861;DHT22;35761;48.826;9.238;2022-10-16T03:17:27;15.80;69.70
49861;DHT22;35761;48.826;9.238;2022-10-16T03:19:57;15.80;70.30
49861;DHT22;35761;48.826;9.238;2022-10-16T03:22:25;15.80;70.70
49861;DHT22;35761;48.826;9.238;2022-10-16T03:24:53;15.80;71.10
49861;DHT22;35761;48.826;9.238;2022-10-16T03:27:22;15.80;71.50
49861;DHT22;35761;48.826;9.238;2022-10-16T03:29:51;15.70;71.70
49861;DHT22;35761;48.826;9.238;2022-10-16T03:32:19;15.70;71.60
49861;DHT22;35761;48.826;9.238;2022-10-16T03:34:48;15.70;71.60
49861;DHT22;35761;48.826;9.238;2022-10-16T03:37:18;15.70;71.20
49861;DHT22;35761;48.826;9.238;2022-10-16T03:39:46;15.70;71.10
49861;DHT22;35761;48.826;9.238;2022-10-16T03:42:14;15.70;71.20
49861;DHT22;35761;48.826;9.238;2022-10-16T03:44:43;15.70;70.90
49861;DHT22;35761;48.826;9.238;2022-10-16T03:47:11;15.70;70.90
49861;DHT22;35761;48.826;9.238;2022-10-16T03:49:39;15.70;71.00
49861;DHT22;35761;48.826;9.238;2022-10-16T03:52:08;15.70;71.10
49861;DHT22;35761;48.826;9.238;2022-10-16T03:54:38;15.70;71.00
49861;DHT22;35761;48.826;9.238;2022-10-16T03:57:06;15.70;71.10
49861;DHT22;35761;48.826;9.238;2022-10-16T03:59:35;15.60;71.00
49861;DHT22;35761;48.826;9.238;2022-10-16T04:02:03;15.60;71.20
49861;DHT22;35761;48.826;9.238;2022-10-16T04:04:32;15.60;71.10
49861;DHT22;35761;48.826;9.238;2022-10-16T04:07:00;15.60;71.10
49861;DHT22;35761;48.826;9.238;2022-10-16T04:09:28;15.60;71.20
49861;DHT22;35761;48.826;9.238;2022-10-16T04:11:58;15.60;71.40
49861;DHT22;35761;48.826;9.238;2022-10-16T04:14:26;15.60;71.50
49861;DHT22;35761;48.826;9.238;2022-10-16T04:16:54;15.60;71.20
49861;DHT22;35761;48.826;9.238;2022-10-16T04:19:23;15.60;71.10
49861;DHT22;35761;48.826;9.238;2022-10-16T04:21:51;15.60;71.30
49861;DHT22;35761;48.826;9.238;2022-10-16T04:24:19;15.60;71.40
49861;DHT22;35761;48.826;9.238;2022-10-16T04:26:48;15.70;71.00
49861;DHT22;35761;48.826;9.238;2022-10-16T04:29:18;15.70;70.60
49861;DHT22;35761;48.826;9.238;2022-10-16T04:31:46;15.70;70.10
49861;DHT22;35761;48.826;9.238;2022-10-16T04:34:15;15.70;69.40
49861;DHT22;35761;48.826;9.238;2022-10-16T04:36:43;15.70;69.20
49861;DHT22;35761;48.826;9.238;2022-10-16T04:39:12;15.70;68.90
49861;DHT22;35761;48.826;9.238;2022-10-16T04:41:40;15.70;68.90
49861;DHT22;35761;48.826;9.238;2022-10-16T04:44:08;15.70;68.90
49861;DHT22;35761;48.826;9.238;2022-10-16T04:46:38;15.70;68.60
49861;DHT22;35761;48.826;9.238;2022-10-16T04:49:06;15.70;68.50
49861;DHT22;35761;48.826;9.238;2022-10-16T04:51:34;15.70;68.30
49861;DHT22;35761;48.826;9.238;2022-10-16T04:54:03;15.70;68.30
49861;DHT22;35761;48.826;9.238;2022-10-16T04:56:31;15.70;68.10
49861;DHT22;35761;48.826;9.238;2022-10-16T04:58:59;15.70;68.10
49861;DHT22;35761;48.826;9.238;2022-10-16T05:01:28;15.70;68.40
49861;DHT22;35761;48.826;9.238;2022-10-16T05:03:57;15.70;68.70
49861;DHT22;35761;48.826;9.238;2022-10-16T05:06:26;15.70;68.90
49861;DHT22;35761;48.826;9.238;2022-10-16T05:08:54;15.70;69.00
49861;DHT22;35761;48.826;9.238;2022-10-16T05:11:23;15.70;69.50
49861;DHT22;35761;48.826;9.238;2022-10-16T05:13:51;15.60;69.50
49861;DHT22;35761;48.826;9.238;2022-10-16T05:16:22;15.60;69.80
49861;DHT22;35761;48.826;9.238;2022-10-16T05:18:51;15.60;70.00
49861;DHT22;35761;48.826;9.238;2022-10-16T05:21:37;15.60;70.00
49861;DHT22;35761;48.826;9.238;2022-10-16T05:24:05;15.70;70.10
49861;DHT22;35761;48.826;9.238;2022-10-16T05:26:34;15.70;70.10
49861;DHT22;35761;48.826;9.238;2022-10-16T05:29:04;15.60;69.70
49861;DHT22;35761;48.826;9.238;2022-10-16T05:31:32;15.70;69.30
49861;DHT22;35761;48.826;9.238;2022-10-16T05:34:01;15.70;69.00
49861;DHT22;35761;48.826;9.238;2022-10-16T05:36:30;15.70;69.00
49861;DHT22;35761;48.826;9.238;2022-10-16T05:38:59;15.60;68.90
49861;DHT22;35761;48.826;9.238;2022-10-16T05:41:28;15.70;69.10
49861;DHT22;35761;48.826;9.238;2022-10-16T05:43:56;15.60;69.10
49861;DHT22;35761;48.826;9.238;2022-10-16T05:46:24;15.60;69.40
49861;DHT22;35761;48.826;9.238;2022-10-16T05:48:53;15.60;69.60
49861;DHT22;35761;48.826;9.238;2022-10-16T05:51:21;15.60;70.20
49861;DHT22;35761;48.826;9.238;2022-10-16T05:53:49;15.60;70.50
49861;DHT22;35761;48.826;9.238;2022-10-16T05:56:19;15.60;70.50
49861;DHT22;35761;48.826;9.238;2022-10-16T05:58:47;15.60;71.10
49861;DHT22;35761;48.826;9.238;2022-10-16T06:01:17;15.60;71.10
49861;DHT22;35761;48.826;9.238;2022-10-16T06:03:47;15.60;71.10
49861;DHT22;35761;48.826;9.238;2022-10-16T06:06:17;15.60;71.40
49861;DHT22;35761;48.826;9.238;2022-10-16T06:08:47;15.60;71.60
49861;DHT22;35761;48.826;9.238;2022-10-16T06:11:19;15.60;71.60
49861;DHT22;35761;48.826;9.238;2022-10-16T06:13:50;15.60;71.90
49861;DHT22;35761;48.826;9.238;2022-10-16T06:16:19;15.50;72.20
49861;DHT22;35761;48.826;9.238;2022-10-16T06:18:48;15.50;72.50
49861;DHT22;35761;48.826;9.238;2022-10-16T06:21:19;15.50;72.80
49861;DHT22;35761;48.826;9.238;2022-10-16T06:23:49;15.50;73.10
49861;DHT22;35761;48.826;9.238;2022-10-16T06:26:20;15.50;73.30
49861;DHT22;35761;48.826;9.238;2022-10-16T06:28:49;15.50;73.10
49861;DHT22;35761;48.826;9.238;2022-10-16T06:31:18;15.50;73.10
49861;DHT22;35761;48.826;9.238;2022-10-16T06:33:50;15.50;73.40
49861;DHT22;35761;48.826;9.238;2022-10-16T06:36:20;15.50;73.50
49861;DHT22;35761;48.826;9.238;2022-10-16T06:38:48;15.50;73.70
49861;DHT22;35761;48.826;9.238;2022-10-16T06:41:21;15.50;73.90
49861;DHT22;35761;48.826;9.238;2022-10-16T06:43:50;15.50;74.10
49861;DHT22;35761;48.826;9.238;2022-10-16T06:46:21;15.50;74.40
49861;DHT22;35761;48.826;9.238;2022-10-16T06:48:51;15.50;74.80
49861;DHT22;35761;48.826;9.238;2022-10-16T06:51:22;15.50;74.90
49861;DHT22;35761;48.826;9.238;2022-10-16T06:53:53;15.50;74.90
49861;DHT22;35761;48.826;9.238;2022-10-16T06:56:33;15.50;74.90
49861;DHT22;35761;48.826;9.238;2022-10-16T06:59:02;15.50;74.70
49861;DHT22;35761;48.826;9.238;2022-10-16T07:01:31;15.50;74.50
49861;DHT22;35761;48.826;9.238;2022-10-16T07:04:01;15.50;74.40
49861;DHT22;35761;48.826;9.238;2022-10-16T07:06:31;15.50;74.80
49861;DHT22;35761;48.826;9.238;2022-10-16T07:09:03;15.50;75.20
49861;DHT22;35761;48.826;9.238;2022-10-16T07:11:34;15.60;75.30
49861;DHT22;35761;48.826;9.238;2022-10-16T07:14:04;15.60;75.50
49861;DHT22;35761;48.826;9.238;2022-10-16T07:16:33;15.60;75.20
49861;DHT22;35761;48.826;9.238;2022-10-16T07:19:02;15.60;75.30
49861;DHT22;35761;48.826;9.238;2022-10-16T07:21:32;15.60;75.60
49861;DHT22;35761;48.826;9.238;2022-10-16T07:24:04;15.60;75.90
49861;DHT22;35761;48.826;9.238;2022-10-16T07:26:36;15.60;76.20
49861;DHT22;35761;48.826;9.238;2022-10-16T07:29:07;15.60;76.40
49861;DHT22;35761;48.826;9.238;2022-10-16T07:31:36;15.60;76.80
49861;DHT22;35761;48.826;9.238;2022-10-16T07:34:05;15.60;76.80
49861;DHT22;35761;48.826;9.238;2022-10-16T07:36:33;15.60;76.60
49861;DHT22;35761;48.826;9.238;2022-10-16T07:39:02;15.60;76.80
49861;DHT22;35761;48.826;9.238;2022-10-16T07:41:31;15.70;77.20
49861;DHT22;35761;48.826;9.238;2022-10-16T07:44:04;15.70;77.20
49861;DHT22;35761;48.826;9.238;2022-10-16T07:46:33;15.70;77.80
49861;DHT22;35761;48.826;9.238;2022-10-16T07:49:02;15.80;76.80
49861;DHT22;35761;48.826;9.238;2022-10-16T07:51:31;15.70;76.70
49861;DHT22;35761;48.826;9.238;2022-10-16T07:54:00;15.70;77.00
49861;DHT22;35761;48.826;9.238;2022-10-16T07:56:30;15.70;76.90
49861;DHT22;35761;48.826;9.238;2022-10-16T07:58:59;15.80;76.70
49861;DHT22;35761;48.826;9.238;2022-10-16T08:01:29;15.80;76.30
49861;DHT22;35761;48.826;9.238;2022-10-16T08:03:57;15.80;75.80
49861;DHT22;35761;48.826;9.238;2022-10-16T08:06:25;15.80;75.70
49861;DHT22;35761;48.826;9.238;2022-10-16T08:08:54;15.90;75.90
49861;DHT22;35761;48.826;9.238;2022-10-16T08:11:23;15.90;75.20
49861;DHT22;35761;48.826;9.238;2022-10-16T08:13:52;15.90;74.40
49861;DHT22;35761;48.826;9.238;2022-10-16T08:16:21;15.90;73.40
49861;DHT22;35761;48.826;9.238;2022-10-16T08:18:50;15.90;73.50
49861;DHT22;35761;48.826;9.238;2022-10-16T08:21:20;16.00;72.20
49861;DHT22;35761;48.826;9.238;2022-10-16T08:23:50;16.00;70.90
49861;DHT22;35761;48.826;9.238;2022-10-16T08:26:25;16.10;70.70
49861;DHT22;35761;48.826;9.238;2022-10-16T08:28:54;16.10;70.20
49861;DHT22;35761;48.826;9.238;2022-10-16T08:31:23;16.10;70.80
49861;DHT22;35761;48.826;9.238;2022-10-16T08:33:54;16.20;69.10
49861;DHT22;35761;48.826;9.238;2022-10-16T08:36:22;16.30;68.80
49861;DHT22;35761;48.826;9.238;2022-10-16T08:38:51;16.50;65.30
49861;DHT22;35761;48.826;9.238;2022-10-16T08:44:56;16.60;65.80
49861;DHT22;35761;48.826;9.238;2022-10-16T08:47:45;16.60;65.60
49861;DHT22;35761;48.826;9.238;2022-10-16T08:50:22;16.70;64.30
49861;DHT22;35761;48.826;9.238;2022-10-16T08:52:54;16.70;63.20
49861;DHT22;35761;48.826;9.238;2022-10-16T08:55:30;16.70;64.70
49861;DHT22;35761;48.826;9.238;2022-10-16T08:58:01;16.70;64.90
49861;DHT22;35761;48.826;9.238;2022-10-16T09:00:30;16.70;65.00
49861;DHT22;35761;48.826;9.238;2022-10-16T09:03:05;16.70;64.50
49861;DHT22;35761;48.826;9.238;2022-10-16T09:09:01;16.80;65.90
49861;DHT22;35761;48.826;9.238;2022-10-16T09:11:45;16.90;64.70
49861;DHT22;35761;48.826;9.238;2022-10-16T09:14:35;17.00;64.20
49861;DHT22;35761;48.826;9.238;2022-10-16T09:17:20;17.00;63.30
49861;DHT22;35761;48.826;9.238;2022-10-16T09:20:03;17.10;62.70
49861;DHT22;35761;48.826;9.238;2022-10-16T09:22:41;17.20;62.70
49861;DHT22;35761;48.826;9.238;2022-10-16T09:25:12;17.20;62.90
49861;DHT22;35761;48.826;9.238;2022-10-16T09:27:45;17.20;61.50
49861;DHT22;35761;48.826;9.238;2022-10-16T09:30:17;17.20;60.80
49861;DHT22;35761;48.826;9.238;2022-10-16T09:32:50;17.30;60.10
49861;DHT22;35761;48.826;9.238;2022-10-16T09:35:21;17.30;60.10
49861;DHT22;35761;48.826;9.238;2022-10-16T09:37:54;17.40;60.30
49861;DHT22;35761;48.826;9.238;2022-10-16T09:40:28;17.50;60.90
49861;DHT22;35761;48.826;9.238;2022-10-16T09:43:03;17.50;60.90
49861;DHT22;35761;48.826;9.238;2022-10-16T09:45:43;17.50;59.90
49861;DHT22;35761;48.826;9.238;2022-10-16T09:48:22;17.60;59.00
49861;DHT22;35761;48.826;9.238;2022-10-16T09:50:58;17.70;58.20
49861;DHT22;35761;48.826;9.238;2022-10-16T09:53:41;17.70;58.40
49861;DHT22;35761;48.826;9.238;2022-10-16T09:56:11;17.70;58.90
49861;DHT22;35761;48.826;9.238;2022-10-16T09:58:49;17.70;58.90
49861;DHT22;35761;48.826;9.238;2022-10-16T10:01:19;17.70;59.60
49861;DHT22;35761;48.826;9.238;2022-10-16T10:03:50;17.80;59.30
49861;DHT22;35761;48.826;9.238;2022-10-16T10:06:23;17.90;59.00
49861;DHT22;35761;48.826;9.238;2022-10-16T10:09:06;17.90;58.10
49861;DHT22;35761;48.826;9.238;2022-10-16T10:11:45;18.00;58.40
49861;DHT22;35761;48.826;9.238;2022-10-16T10:14:22;18.00;58.60
49861;DHT22;35761;48.826;9.238;2022-10-16T10:17:14;18.10;58.20
49861;DHT22;35761;48.826;9.238;2022-10-16T10:19:48;18.10;57.70
49861;DHT22;35761;48.826;9.238;2022-10-16T10:22:30;18.20;57.40
49861;DHT22;35761;48.826;9.238;2022-10-16T10:25:18;18.20;58.20
49861;DHT22;35761;48.826;9.238;2022-10-16T10:28:03;18.20;57.70
49861;DHT22;35761;48.826;9.238;2022-10-16T10:30:54;18.30;57.00
49861;DHT22;35761;48.826;9.238;2022-10-16T10:33:31;18.30;56.60
49861;DHT22;35761;48.826;9.238;2022-10-16T10:36:15;18.40;58.50
49861;DHT22;35761;48.826;9.238;2022-10-16T10:38:52;18.50;59.80
49861;DHT22;35761;48.826;9.238;2022-10-16T10:45:01;18.60;58.50
49861;DHT22;35761;48.826;9.238;2022-10-16T10:47:49;18.80;57.30
49861;DHT22;35761;48.826;9.238;2022-10-16T10:50:28;18.90;55.00
49861;DHT22;35761;48.826;9.238;2022-10-16T10:53:06;19.00;55.00
49861;DHT22;35761;48.826;9.238;2022-10-16T10:55:42;19.10;55.10
49861;DHT22;35761;48.826;9.238;2022-10-16T10:58:28;19.10;56.50
49861;DHT22;35761;48.826;9.238;2022-10-16T11:01:13;19.20;53.70
49861;DHT22;35761;48.826;9.238;2022-10-16T11:04:01;19.40;48.50
49861;DHT22;35761;48.826;9.238;2022-10-16T11:06:49;19.50;47.50
49861;DHT22;35761;48.826;9.238;2022-10-16T11:09:23;19.60;47.80
49861;DHT22;35761;48.826;9.238;2022-10-16T11:11:58;19.70;49.70
49861;DHT22;35761;48.826;9.238;2022-10-16T11:14:31;19.70;47.40
49861;DHT22;35761;48.826;9.238;2022-10-16T11:17:08;19.90;44.80
49861;DHT22;35761;48.826;9.238;2022-10-16T11:19:43;20.00;45.20
49861;DHT22;35761;48.826;9.238;2022-10-16T11:22:19;20.00;46.00
49861;DHT22;35761;48.826;9.238;2022-10-16T11:24:51;20.20;45.60
49861;DHT22;35761;48.826;9.238;2022-10-16T11:27:35;20.30;47.10
49861;DHT22;35761;48.826;9.238;2022-10-16T11:30:14;20.40;48.10
49861;DHT22;35761;48.826;9.238;2022-10-16T11:32:55;20.60;48.10
49861;DHT22;35761;48.826;9.238;2022-10-16T11:35:38;20.70;48.00
49861;DHT22;35761;48.826;9.238;2022-10-16T11:38:14;20.90;47.60
49861;DHT22;35761;48.826;9.238;2022-10-16T11:40:58;21.00;46.30
49861;DHT22;35761;48.826;9.238;2022-10-16T11:43:28;21.30;43.30
49861;DHT22;35761;48.826;9.238;2022-10-16T11:46:04;21.40;43.30
49861;DHT22;35761;48.826;9.238;2022-10-16T11:48:43;21.60;41.80
49861;DHT22;35761;48.826;9.238;2022-10-16T11:51:19;21.70;42.30
49861;DHT22;35761;48.826;9.238;2022-10-16T11:53:56;21.80;40.80
49861;DHT22;35761;48.826;9.238;2022-10-16T11:56:29;21.90;39.50
49861;DHT22;35761;48.826;9.238;2022-10-16T11:59:02;21.90;40.20
49861;DHT22;35761;48.826;9.238;2022-10-16T12:01:37;22.00;39.40
49861;DHT22;35761;48.826;9.238;2022-10-16T12:04:21;22.10;40.70
49861;DHT22;35761;48.826;9.238;2022-10-16T12:06:57;22.30;41.10
49861;DHT22;35761;48.826;9.238;2022-10-16T12:09:32;22.40;40.10
49861;DHT22;35761;48.826;9.238;2022-10-16T12:12:03;22.50;39.10
49861;DHT22;35761;48.826;9.238;2022-10-16T12:14:37;22.80;35.50
49861;DHT22;35761;48.826;9.238;2022-10-16T12:17:34;23.00;35.80
49861;DHT22;35761;48.826;9.238;2022-10-16T12:20:21;23.10;33.60
49861;DHT22;35761;48.826;9.238;2022-10-16T12:22:54;23.20;32.20
49861;DHT22;35761;48.826;9.238;2022-10-16T12:25:26;23.20;32.80
49861;DHT22;35761;48.826;9.238;2022-10-16T12:28:01;23.10;33.90
49861;DHT22;35761;48.826;9.238;2022-10-16T12:30:33;23.10;33.70
49861;DHT22;35761;48.826;9.238;2022-10-16T12:33:04;23.00;34.00
49861;DHT22;35761;48.826;9.238;2022-10-16T12:35:43;23.10;34.60
49861;DHT22;35761;48.826;9.238;2022-10-16T12:38:16;23.20;34.00
49861;DHT22;35761;48.826;9.238;2022-10-16T12:40:53;23.40;35.80
49861;DHT22;35761;48.826;9.238;2022-10-16T12:43:38;23.50;31.70
49861;DHT22;35761;48.826;9.238;2022-10-16T12:46:23;23.60;31.40
49861;DHT22;35761;48.826;9.238;2022-10-16T12:49:29;23.80;32.70
49861;DHT22;35761;48.826;9.238;2022-10-16T12:52:00;24.00;32.30
49861;DHT22;35761;48.826;9.238;2022-10-16T12:54:29;24.00;32.60
49861;DHT22;35761;48.826;9.238;2022-10-16T12:57:34;24.20;34.00
49861;DHT22;35761;48.826;9.238;2022-10-16T13:00:14;24.40;32.30
49861;DHT22;35761;48.826;9.238;2022-10-16T13:02:59;24.60;32.60
49861;DHT22;35761;48.826;9.238;2022-10-16T13:05:46;24.80;31.90
49861;DHT22;35761;48.826;9.238;2022-10-16T13:08:45;24.90;29.80
49861;DHT22;35761;48.826;9.238;2022-10-16T13:11:41;24.80;28.90
49861;DHT22;35761;48.826;9.238;2022-10-16T13:14:32;24.70;28.00
49861;DHT22;35761;48.826;9.238;2022-10-16T13:17:20;24.80;29.00
49861;DHT22;35761;48.826;9.238;2022-10-16T13:19:56;24.90;28.50
49861;DHT22;35761;48.826;9.238;2022-10-16T13:22:35;24.90;28.90
49861;DHT22;35761;48.826;9.238;2022-10-16T13:25:21;24.90;29.60
49861;DHT22;35761;48.826;9.238;2022-10-16T13:27:56;25.20;29.40
49861;DHT22;35761;48.826;9.238;2022-10-16T13:30:29;25.20;28.60
49861;DHT22;35761;48.826;9.238;2022-10-16T13:33:03;25.30;28.70
49861;DHT22;35761;48.826;9.238;2022-10-16T13:35:35;25.30;29.30
49861;DHT22;35761;48.826;9.238;2022-10-16T13:38:08;25.20;29.80
49861;DHT22;35761;48.826;9.238;2022-10-16T13:40:54;25.10;30.30
49861;DHT22;35761;48.826;9.238;2022-10-16T13:43:27;25.10;31.00
49861;DHT22;35761;48.826;9.238;2022-10-16T13:45:59;25.00;31.90
49861;DHT22;35761;48.826;9.238;2022-10-16T13:48:29;24.90;30.60
49861;DHT22;35761;48.826;9.238;2022-10-16T13:51:11;24.90;29.90
49861;DHT22;35761;48.826;9.238;2022-10-16T13:53:44;24.80;29.80
49861;DHT22;35761;48.826;9.238;2022-10-16T13:56:16;24.70;30.00
49861;DHT22;35761;48.826;9.238;2022-10-16T13:58:46;24.70;30.80
49861;DHT22;35761;48.826;9.238;2022-10-16T14:01:17;24.80;31.80
49861;DHT22;35761;48.826;9.238;2022-10-16T14:03:48;24.90;32.00
49861;DHT22;35761;48.826;9.238;2022-10-16T14:06:20;24.90;31.50
49861;DHT22;35761;48.826;9.238;2022-10-16T14:08:57;24.90;30.80
49861;DHT22;35761;48.826;9.238;2022-10-16T14:11:29;24.80;31.30
49861;DHT22;35761;48.826;9.238;2022-10-16T14:13:59;24.70;31.80
49861;DHT22;35761;48.826;9.238;2022-10-16T14:16:30;24.60;31.80
49861;DHT22;35761;48.826;9.238;2022-10-16T14:19:01;24.50;32.20
49861;DHT22;35761;48.826;9.238;2022-10-16T14:21:33;24.50;31.90
49861;DHT22;35761;48.826;9.238;2022-10-16T14:24:11;24.40;32.40
49861;DHT22;35761;48.826;9.238;2022-10-16T14:26:43;24.30;32.50
49861;DHT22;35761;48.826;9.238;2022-10-16T14:29:19;24.30;32.90
49861;DHT22;35761;48.826;9.238;2022-10-16T14:31:55;24.30;33.40
49861;DHT22;35761;48.826;9.238;2022-10-16T14:34:27;24.30;33.60
49861;DHT22;35761;48.826;9.238;2022-10-16T14:36:58;24.20;33.80
49861;DHT22;35761;48.826;9.238;2022-10-16T14:39:31;24.20;34.60
49861;DHT22;35761;48.826;9.238;2022-10-16T14:42:01;24.10;33.80
49861;DHT22;35761;48.826;9.238;2022-10-16T14:44:32;24.00;33.70
49861;DHT22;35761;48.826;9.238;2022-10-16T14:47:08;24.00;33.90
49861;DHT22;35761;48.826;9.238;2022-10-16T14:49:41;24.00;34.00
49861;DHT22;35761;48.826;9.238;2022-10-16T14:52:11;24.00;34.20
49861;DHT22;35761;48.826;9.238;2022-10-16T14:54:41;23.90;34.50
49861;DHT22;35761;48.826;9.238;2022-10-16T14:57:19;23.90;35.00
49861;DHT22;35761;48.826;9.238;2022-10-16T14:59:52;23.90;35.20
49861;DHT22;35761;48.826;9.238;2022-10-16T15:02:27;24.00;35.30
49861;DHT22;35761;48.826;9.238;2022-10-16T15:05:07;23.90;35.40
49861;DHT22;35761;48.826;9.238;2022-10-16T15:07:41;23.90;35.50
49861;DHT22;35761;48.826;9.238;2022-10-16T15:10:10;23.90;35.50
49861;DHT22;35761;48.826;9.238;2022-10-16T15:12:40;23.90;35.80
49861;DHT22;35761;48.826;9.238;2022-10-16T15:15:33;23.90;35.50
49861;DHT22;35761;48.826;9.238;2022-10-16T15:18:04;23.90;35.20
49861;DHT22;35761;48.826;9.238;2022-10-16T15:20:39;23.90;35.10
49861;DHT22;35761;48.826;9.238;2022-10-16T15:23:13;24.00;34.70
49861;DHT22;35761;48.826;9.238;2022-10-16T15:25:48;24.00;34.60
49861;DHT22;35761;48.826;9.238;2022-10-16T15:28:20;24.10;34.40
49861;DHT22;35761;48.826;9.238;2022-10-16T15:30:49;24.10;34.20
49861;DHT22;35761;48.826;9.238;2022-10-16T15:33:20;24.10;34.10
49861;DHT22;35761;48.826;9.238;2022-10-16T15:35:51;24.00;34.30
49861;DHT22;35761;48.826;9.238;2022-10-16T15:38:22;24.00;34.60
49861;DHT22;35761;48.826;9.238;2022-10-16T15:40:50;23.90;34.90
49861;DHT22;35761;48.826;9.238;2022-10-16T15:43:20;23.80;35.10
49861;DHT22;35761;48.826;9.238;2022-10-16T15:45:59;23.70;35.10
49861;DHT22;35761;48.826;9.238;2022-10-16T15:48:30;23.70;35.20
49861;DHT22;35761;48.826;9.238;2022-10-16T15:50:59;23.70;36.00
49861;DHT22;35761;48.826;9.238;2022-10-16T15:53:28;23.60;35.30
49861;DHT22;35761;48.826;9.238;2022-10-16T15:55:56;23.60;35.70
49861;DHT22;35761;48.826;9.238;2022-10-16T15:58:27;23.50;35.70
49861;DHT22;35761;48.826;9.238;2022-10-16T16:00:56;23.50;35.90
49861;DHT22;35761;48.826;9.238;2022-10-16T16:03:27;23.40;35.90
49861;DHT22;35761;48.826;9.238;2022-10-16T16:05:57;23.40;36.30
49861;DHT22;35761;48.826;9.238;2022-10-16T16:08:25;23.40;36.40
49861;DHT22;35761;48.826;9.238;2022-10-16T16:10:58;23.30;36.80
49861;DHT22;35761;48.826;9.238;2022-10-16T16:13:28;23.30;36.90
49861;DHT22;35761;48.826;9.238;2022-10-16T16:15:57;23.30;36.80
49861;DHT22;35761;48.826;9.238;2022-10-16T16:18:26;23.30;36.90
49861;DHT22;35761;48.826;9.238;2022-10-16T16:20:55;23.30;37.00